VSF weather

Hartness State (Springfield) Airport
Springfield, Vermont, United States

Public forecast

Using degrees Fahrenheit for public forecast. Weather courtesy of forecast.io.

Current aviation weather report (METAR) for Hartness State (Springfield) Airport

Retrieved 2020/06/04 10:54 UTC (16 minutes ago):

KVSF 041054Z AUTO 00000KT 1/4SM FG VV002 11/11 A2979 RMK AO2 SLP087 T01110111

Closest aviation forecast (TAF) to Hartness State (Springfield) Airport

Closest forecast is Lebanon Municipal Airport, 19.3 nm (35.8 km) NNE. Retrieved 2020/06/04 06:42 UTC (4 hours ago):

TAF COR KLEB 040539Z 0406/0506 00000KT 1SM BR BKN001 FM041300 VRB05KT P6SM FEW250